Time;durP1;ratioP1;P1;durP2;ratioP2;P2;SDS_P1;SDS_P2;PMS_P1;PMS_P2;Temp;Humidity;BMP_temperature;BMP_pressure;BME280_temperature;BME280_humidity;BME280_pressure;Samples;Min_cycle;Max_cycle;Signal;HPM_P1;HPM_P2
2021/07/27 00:01:10;;;;;;;7.15;5.07;;;25.70;60.00;;;;;;5054490;28;20050;-66
2021/07/27 00:03:37;;;;;;;6.60;5.18;;;25.70;60.20;;;;;;5072465;28;20457;-66
2021/07/27 00:06:06;;;;;;;7.72;5.57;;;25.70;60.20;;;;;;5072499;28;20066;-66
2021/07/27 00:08:37;;;;;;;7.35;5.65;;;25.60;60.30;;;;;;5072623;28;20494;-66
2021/07/27 00:11:12;;;;;;;6.85;5.32;;;25.60;60.40;;;;;;5072813;28;20799;-66
2021/07/27 00:13:39;;;;;;;6.97;4.93;;;25.60;60.60;;;;;;5072714;28;20428;-66
2021/07/27 00:16:05;;;;;;;7.28;5.55;;;25.50;60.60;;;;;;5071814;28;20020;-67
2021/07/27 00:18:31;;;;;;;8.15;5.88;;;25.50;60.60;;;;;;5072596;28;20043;-67
2021/07/27 00:21:00;;;;;;;6.63;5.28;;;25.50;60.70;;;;;;5072301;28;20028;-67
2021/07/27 00:23:26;;;;;;;6.85;5.43;;;25.50;60.80;;;;;;5072095;28;20029;-68
2021/07/27 00:25:51;;;;;;;7.05;5.03;;;25.40;60.90;;;;;;5071584;28;20395;-68
2021/07/27 00:28:17;;;;;;;7.15;5.43;;;25.40;61.00;;;;;;5072370;28;20032;-67
2021/07/27 00:30:43;;;;;;;7.80;6.25;;;25.30;61.60;;;;;;5072010;28;20032;-68
2021/07/27 00:33:08;;;;;;;7.18;5.35;;;25.30;61.10;;;;;;5053779;28;20036;-67
2021/07/27 00:35:34;;;;;;;7.22;5.82;;;25.30;61.10;;;;;;5072344;28;20032;-67
2021/07/27 00:38:09;;;;;;;7.70;6.10;;;25.30;61.30;;;;;;5072017;28;20813;-67
2021/07/27 00:40:40;;;;;;;7.68;6.05;;;25.30;61.40;;;;;;5071762;28;20032;-67
2021/07/27 00:43:08;;;;;;;6.85;5.53;;;25.20;61.50;;;;;;5044128;28;20028;-66
2021/07/27 00:45:34;;;;;;;7.30;5.75;;;25.20;61.60;;;;;;5071989;28;20028;-67
2021/07/27 00:48:00;;;;;;;7.68;5.97;;;25.20;61.70;;;;;;5071512;28;20032;-67
2021/07/27 00:50:26;;;;;;;9.52;6.07;;;25.20;61.80;;;;;;5071590;28;20042;-68
2021/07/27 00:52:55;;;;;;;7.85;6.32;;;25.10;61.80;;;;;;5071771;28;20104;-68
2021/07/27 00:55:21;;;;;;;8.70;6.35;;;25.10;62.00;;;;;;5071682;28;20020;-68
2021/07/27 00:57:46;;;;;;;8.90;6.50;;;25.10;62.10;;;;;;5071594;28;20158;-67
2021/07/27 01:00:13;;;;;;;9.25;7.10;;;25.10;62.20;;;;;;5071422;28;20507;-67
2021/07/27 01:02:38;;;;;;;7.82;6.57;;;25.00;62.20;;;;;;5071084;28;20074;-66
2021/07/27 01:05:04;;;;;;;8.15;6.30;;;25.00;62.30;;;;;;5071402;28;20028;-67
2021/07/27 01:07:31;;;;;;;7.80;6.55;;;24.90;62.40;;;;;;5071693;28;20040;-67
2021/07/27 01:09:57;;;;;;;8.32;6.65;;;24.90;62.50;;;;;;5071615;28;20548;-68
2021/07/27 01:12:22;;;;;;;7.93;6.15;;;24.90;62.60;;;;;;5071186;28;20472;-68
2021/07/27 01:14:48;;;;;;;7.78;6.30;;;24.80;62.60;;;;;;5071632;28;20024;-68
2021/07/27 01:17:14;;;;;;;8.70;7.15;;;24.80;62.90;;;;;;5071518;28;20028;-68
2021/07/27 01:19:57;;;;;;;9.25;8.07;;;24.70;63.00;;;;;;5071308;28;20021;-67
2021/07/27 01:43:52;;;;;;;8.15;6.70;;;24.50;63.50;;;;;;5070931;28;20024;-67
2021/07/27 01:46:22;;;;;;;7.70;6.32;;;24.40;63.60;;;;;;5070919;28;20103;-67
2021/07/27 01:48:48;;;;;;;7.40;5.75;;;24.40;63.90;;;;;;5070912;28;20013;-67
2021/07/27 01:51:16;;;;;;;8.18;6.38;;;24.40;64.10;;;;;;5071044;28;20074;-67
2021/07/27 01:53:53;;;;;;;7.93;5.93;;;24.40;64.10;;;;;;5070997;28;20380;-67
2021/07/27 01:56:20;;;;;;;7.32;5.68;;;24.40;64.20;;;;;;5070788;28;20032;-66
2021/07/27 01:58:48;;;;;;;6.70;5.18;;;24.40;64.20;;;;;;5071133;28;20017;-66
2021/07/27 02:01:13;;;;;;;6.25;5.05;;;24.40;64.40;;;;;;5070941;28;20075;-67
2021/07/27 02:03:39;;;;;;;6.53;5.10;;;24.40;64.40;;;;;;5070555;28;20076;-66
2021/07/27 02:06:05;;;;;;;6.13;4.82;;;24.50;64.50;;;;;;5070443;28;20024;-67
2021/07/27 02:08:30;;;;;;;6.75;5.13;;;24.50;64.50;;;;;;5054268;28;20120;-67
2021/07/27 02:11:01;;;;;;;8.85;5.65;;;24.40;64.50;;;;;;5070905;28;20056;-67
2021/07/27 02:13:32;;;;;;;7.10;5.50;;;24.40;64.80;;;;;;5070622;28;20033;-67
2021/07/27 02:15:59;;;;;;;7.45;5.88;;;24.40;64.70;;;;;;5070601;28;20467;-67
2021/07/27 02:18:25;;;;;;;8.20;6.10;;;24.40;64.80;;;;;;5070522;28;20032;-67
2021/07/27 02:20:51;;;;;;;8.23;6.60;;;24.40;65.00;;;;;;5070257;28;20099;-67
2021/07/27 02:23:17;;;;;;;8.77;6.43;;;24.40;65.00;;;;;;5070545;28;20115;-67
2021/07/27 02:25:43;;;;;;;8.63;6.65;;;24.40;65.10;;;;;;5070471;28;20449;-67
2021/07/27 02:28:12;;;;;;;8.82;6.40;;;24.40;65.20;;;;;;5070382;28;20025;-67
2021/07/27 02:30:42;;;;;;;8.00;6.18;;;24.30;65.30;;;;;;5070464;28;20071;-66
2021/07/27 02:33:07;;;;;;;8.85;6.60;;;24.30;65.20;;;;;;5070658;28;20053;-67
2021/07/27 02:38:55;;;;;;;8.68;6.03;;;24.30;65.70;;;;;;5070688;28;20379;-67
2021/07/27 02:41:20;;;;;;;7.55;5.88;;;24.40;65.40;;;;;;5070478;28;20024;-67
2021/07/27 02:43:46;;;;;;;7.93;6.18;;;24.30;65.40;;;;;;5070356;28;20043;-67
2021/07/27 02:46:11;;;;;;;7.65;5.70;;;24.40;65.50;;;;;;5070502;28;20498;-67
2021/07/27 02:48:46;;;;;;;7.75;6.05;;;24.40;65.60;;;;;;5072754;28;20032;-67
2021/07/27 02:51:12;;;;;;;7.78;6.40;;;24.40;65.60;;;;;;5073804;28;20100;-67
2021/07/27 02:53:37;;;;;;;8.45;6.95;;;24.50;65.60;;;;;;5073729;28;20119;-66
2021/07/27 02:56:03;;;;;;;8.50;6.65;;;24.50;65.60;;;;;;5073717;28;20028;-66
2021/07/27 02:58:30;;;;;;;7.60;6.20;;;24.50;65.70;;;;;;5073417;28;20025;-66
2021/07/27 03:00:56;;;;;;;8.00;6.57;;;24.50;65.60;;;;;;5073469;28;20471;-67
2021/07/27 03:03:21;;;;;;;8.40;6.60;;;24.60;65.70;;;;;;5073562;28;20048;-67
2021/07/27 03:05:47;;;;;;;7.93;6.55;;;24.60;65.70;;;;;;5073131;28;20524;-67
2021/07/27 03:08:19;;;;;;;8.23;6.38;;;24.60;65.80;;;;;;5073528;28;20525;-66
2021/07/27 03:10:44;;;;;;;;;;;24.60;65.90;;;;;;5074208;28;20025;-67
2021/07/27 03:13:10;;;;;;;8.07;5.88;;;24.60;66.40;;;;;;5073847;28;19914;-67
2021/07/27 03:15:36;;;;;;;8.20;6.40;;;24.60;65.70;;;;;;5073643;28;20039;-67
2021/07/27 03:18:01;;;;;;;7.93;6.20;;;24.60;65.90;;;;;;5073275;28;20053;-66
2021/07/27 03:20:28;;;;;;;8.45;6.53;;;24.60;65.90;;;;;;5073864;28;20055;-67
2021/07/27 03:22:57;;;;;;;8.18;6.75;;;24.60;65.90;;;;;;5073044;28;20107;-67
2021/07/27 03:25:24;;;;;;;8.35;7.18;;;24.60;65.90;;;;;;5073080;28;20017;-67
2021/07/27 03:27:51;;;;;;;9.05;6.88;;;24.70;66.00;;;;;;5072423;28;20025;-67
2021/07/27 03:30:21;;;;;;;9.18;7.63;;;24.70;65.90;;;;;;5073377;28;20103;-67
2021/07/27 03:32:48;;;;;;;12.18;9.93;;;24.70;65.90;;;;;;5073324;28;20021;-67
2021/07/27 03:35:18;;;;;;;8.63;7.20;;;24.80;65.90;;;;;;5055364;28;20440;-67
2021/07/27 03:37:44;;;;;;;8.23;6.72;;;24.80;65.90;;;;;;5072891;28;20388;-67
2021/07/27 03:40:10;;;;;;;12.45;9.52;;;24.80;66.00;;;;;;5073192;28;20456;-67
2021/07/27 03:42:36;;;;;;;9.88;8.40;;;24.80;66.10;;;;;;5073286;28;20052;-67
2021/07/27 03:45:01;;;;;;;9.07;7.18;;;24.80;66.20;;;;;;5073104;28;20489;-67
2021/07/27 03:47:27;;;;;;;8.63;6.95;;;24.90;66.20;;;;;;5055270;28;20391;-67
2021/07/27 03:49:56;;;;;;;7.93;6.80;;;24.90;66.20;;;;;;5072603;28;20020;-66
2021/07/27 03:52:23;;;;;;;8.60;6.80;;;24.90;66.10;;;;;;5072814;28;20025;-66
2021/07/27 03:54:49;;;;;;;8.38;6.95;;;25.00;66.20;;;;;;5073096;28;20506;-67
2021/07/27 03:57:16;;;;;;;9.07;7.95;;;25.00;66.30;;;;;;5072400;28;20492;-66
2021/07/27 03:59:41;;;;;;;9.32;8.02;;;25.10;66.30;;;;;;5071744;28;20027;-67
2021/07/27 04:02:07;;;;;;;8.43;6.55;;;25.10;66.30;;;;;;5072313;28;20032;-67
2021/07/27 04:04:35;;;;;;;8.00;6.72;;;25.10;66.20;;;;;;5072829;28;20027;-67
2021/07/27 04:07:01;;;;;;;8.13;6.32;;;25.20;66.30;;;;;;5072470;28;20151;-68
2021/07/27 04:09:30;;;;;;;9.35;7.05;;;25.20;66.30;;;;;;5071712;28;20020;-68
2021/07/27 04:11:56;;;;;;;8.68;6.93;;;25.30;66.30;;;;;;5072188;28;20039;-68
2021/07/27 04:14:22;;;;;;;8.40;7.07;;;25.30;66.30;;;;;;5072363;28;20021;-67
2021/07/27 04:16:48;;;;;;;9.68;7.30;;;25.40;66.30;;;;;;5072675;28;20028;-66
2021/07/27 04:19:13;;;;;;;9.07;7.43;;;25.40;66.20;;;;;;5053963;28;20495;-67
2021/07/27 04:21:43;;;;;;;10.48;7.20;;;25.50;66.30;;;;;;5071989;28;20021;-67
2021/07/27 04:24:09;;;;;;;9.60;7.47;;;25.50;66.30;;;;;;5071731;28;20037;-68
2021/07/27 04:26:35;;;;;;;9.52;7.43;;;25.60;66.40;;;;;;5072085;28;20013;-68
2021/07/27 04:29:00;;;;;;;8.43;7.18;;;25.70;66.40;;;;;;5072074;28;20024;-67
2021/07/27 04:31:26;;;;;;;9.40;7.07;;;25.70;66.50;;;;;;5071459;28;20855;-67
2021/07/27 04:33:52;;;;;;;8.43;7.03;;;25.80;66.40;;;;;;5068020;28;20107;-67
2021/07/27 04:36:17;;;;;;;8.60;7.38;;;25.90;66.50;;;;;;5071648;28;20032;-67
2021/07/27 04:38:43;;;;;;;9.55;7.95;;;25.90;66.50;;;;;;5071762;28;20020;-67
2021/07/27 04:41:12;;;;;;;10.93;8.48;;;26.00;66.50;;;;;;5071877;28;20074;-67
2021/07/27 04:43:39;;;;;;;9.02;7.32;;;26.00;66.50;;;;;;5064325;28;20024;-67
2021/07/27 04:46:06;;;;;;;9.68;8.38;;;26.10;66.50;;;;;;5071473;28;20020;-68
2021/07/27 04:48:32;;;;;;;9.82;8.82;;;26.20;66.50;;;;;;5071253;28;20510;-68
2021/07/27 04:50:58;;;;;;;10.05;9.05;;;26.20;65.90;;;;;;5071518;28;20020;-68
2021/07/27 04:53:25;;;;;;;10.52;9.00;;;26.30;66.30;;;;;;5071395;28;20486;-68
2021/07/27 04:55:51;;;;;;;11.38;10.10;;;26.30;66.10;;;;;;5071508;28;20025;-68
2021/07/27 04:58:17;;;;;;;11.00;9.90;;;26.40;66.00;;;;;;5070862;28;20031;-68
2021/07/27 05:00:43;;;;;;;9.98;8.75;;;26.50;65.70;;;;;;5071246;28;20379;-67
2021/07/27 05:03:09;;;;;;;9.55;7.90;;;26.50;65.20;;;;;;5070178;28;20450;-67
2021/07/27 05:05:35;;;;;;;8.60;7.32;;;26.60;64.90;;;;;;5070749;28;20456;-67
2021/07/27 05:08:02;;;;;;;9.00;7.03;;;26.60;64.60;;;;;;5070719;28;20032;-67
2021/07/27 05:10:28;;;;;;;8.65;7.20;;;26.70;64.20;;;;;;5070614;28;20084;-67
2021/07/27 05:12:54;;;;;;;8.65;6.35;;;26.70;63.80;;;;;;5070168;28;20029;-67
2021/07/27 05:15:20;;;;;;;7.25;6.15;;;26.80;63.50;;;;;;5070182;28;20025;-67
2021/07/27 05:17:46;;;;;;;7.40;5.80;;;26.80;63.30;;;;;;5070607;28;20468;-67
2021/07/27 05:20:13;;;;;;;7.57;6.00;;;26.90;63.10;;;;;;5070381;28;20535;-67
2021/07/27 05:22:39;;;;;;;7.18;5.75;;;26.90;62.80;;;;;;5071032;28;20024;-68
2021/07/27 05:25:05;;;;;;;7.80;6.18;;;27.00;62.70;;;;;;5070939;28;20154;-67
2021/07/27 05:27:35;;;;;;;9.38;5.57;;;27.00;62.50;;;;;;5070535;28;20020;-66
2021/07/27 05:30:02;;;;;;;10.13;5.63;;;27.10;62.40;;;;;;5052472;28;20101;-67
2021/07/27 05:32:28;;;;;;;11.48;5.63;;;27.10;62.30;;;;;;5070913;28;20033;-67
2021/07/27 05:34:54;;;;;;;7.53;5.65;;;27.20;62.30;;;;;;5070523;28;20035;-67
2021/07/27 05:37:20;;;;;;;7.07;5.20;;;27.20;62.40;;;;;;5071213;28;20033;-67
2021/07/27 05:39:46;;;;;;;8.05;5.53;;;27.30;62.50;;;;;;5071148;28;20045;-67
2021/07/27 05:42:12;;;;;;;7.25;5.40;;;27.30;62.50;;;;;;5071183;28;20052;-67
2021/07/27 05:44:37;;;;;;;6.47;4.82;;;27.30;62.50;;;;;;5071103;28;20071;-68
2021/07/27 05:47:03;;;;;;;6.93;4.53;;;27.30;62.40;;;;;;5071021;28;20054;-68
2021/07/27 05:49:31;;;;;;;6.43;4.90;;;27.40;62.30;;;;;;5071564;28;20538;-72
2021/07/27 05:51:57;;;;;;;6.32;4.60;;;27.40;62.10;;;;;;5071936;28;20452;-73
2021/07/27 05:54:24;;;;;;;6.32;4.68;;;27.50;61.80;;;;;;5072264;28;20108;-73
2021/07/27 05:56:51;;;;;;;6.47;4.50;;;27.60;61.70;;;;;;5071406;28;20474;-73
2021/07/27 05:59:18;;;;;;;6.40;4.50;;;27.60;61.30;;;;;;5071642;28;20034;-73
2021/07/27 06:01:44;;;;;;;6.88;4.75;;;27.70;61.20;;;;;;5071068;28;20095;-73
2021/07/27 06:04:10;;;;;;;6.05;4.35;;;27.80;60.90;;;;;;5071273;28;20037;-73
2021/07/27 06:06:37;;;;;;;6.53;4.50;;;27.80;60.60;;;;;;5071811;28;20031;-72
2021/07/27 06:09:06;;;;;;;5.72;4.13;;;27.90;60.50;;;;;;5071373;28;20074;-73
2021/07/27 06:11:32;;;;;;;7.05;4.07;;;27.90;60.10;;;;;;5070886;28;20678;-72
2021/07/27 06:13:58;;;;;;;5.97;4.00;;;28.00;60.00;;;;;;5070529;28;20690;-72
2021/07/27 06:16:23;;;;;;;6.43;4.50;;;28.10;60.00;;;;;;5071895;28;20021;-73
2021/07/27 06:18:49;;;;;;;5.97;4.43;;;28.10;59.70;;;;;;5053177;28;20154;-72
2021/07/27 06:21:16;;;;;;;6.15;3.88;;;28.20;59.60;;;;;;5071370;28;20048;-71
2021/07/27 06:23:42;;;;;;;6.57;4.40;;;28.30;59.40;;;;;;5073690;28;20095;-72
2021/07/27 06:26:08;;;;;;;6.20;4.00;;;28.30;59.30;;;;;;5074690;28;20333;-71
2021/07/27 06:28:34;;;;;;;6.13;4.25;;;28.40;59.30;;;;;;5074965;28;20017;-76
2021/07/27 06:31:13;;;;;;;6.63;4.07;;;28.50;59.60;;;;;;5075863;28;20053;-76
2021/07/27 06:33:42;;;;;;;7.03;4.50;;;28.60;59.60;;;;;;5075663;28;20056;-73
2021/07/27 06:36:09;;;;;;;7.03;4.45;;;28.70;59.70;;;;;;5075214;28;20063;-73
2021/07/27 06:38:35;;;;;;;5.90;4.32;;;28.70;59.60;;;;;;5075726;28;20037;-73
2021/07/27 06:41:11;;;;;;;6.68;5.20;;;28.90;59.70;;;;;;5075485;28;20086;-73
2021/07/27 06:43:38;;;;;;;6.50;4.43;;;29.00;59.90;;;;;;5074638;28;20395;-73
2021/07/27 06:46:05;;;;;;;6.97;4.85;;;29.10;60.00;;;;;;5074999;28;20025;-73
2021/07/27 06:48:31;;;;;;;7.50;4.90;;;29.20;60.10;;;;;;5075773;28;20024;-74
2021/07/27 06:50:56;;;;;;;7.57;5.20;;;29.30;60.10;;;;;;5068841;28;20387;-76
2021/07/27 06:53:26;;;;;;;8.23;5.20;;;29.30;60.10;;;;;;5037109;28;20025;-76
2021/07/27 06:55:52;;;;;;;7.13;5.25;;;29.40;60.10;;;;;;5049859;28;20028;-76
2021/07/27 06:58:17;;;;;;;7.22;5.28;;;29.50;60.20;;;;;;5074401;28;20181;-75
2021/07/27 07:00:43;;;;;;;7.93;5.55;;;29.60;60.30;;;;;;5056692;28;20421;-76
2021/07/27 07:03:10;;;;;;;6.75;5.03;;;29.70;60.40;;;;;;5074352;28;20044;-77
2021/07/27 07:05:37;;;;;;;7.13;5.13;;;29.80;60.30;;;;;;5056757;28;20028;-74
2021/07/27 07:08:03;;;;;;;7.47;5.53;;;29.90;60.20;;;;;;5073934;28;20025;-71
2021/07/27 07:10:29;;;;;;;7.70;5.80;;;30.00;60.00;;;;;;5074140;28;20479;-72
2021/07/27 07:12:55;;;;;;;9.75;5.80;;;30.20;60.00;;;;;;5073801;28;20464;-72
2021/07/27 07:15:21;;;;;;;7.18;5.60;;;30.20;59.80;;;;;;5073784;28;20024;-72
2021/07/27 07:17:47;;;;;;;7.15;5.68;;;30.30;59.60;;;;;;5073655;28;20071;-72
2021/07/27 07:20:14;;;;;;;7.47;6.00;;;30.40;59.50;;;;;;5055816;28;20045;-74
2021/07/27 07:22:40;;;;;;;8.10;6.00;;;30.50;59.40;;;;;;5073927;28;20422;-74
2021/07/27 07:25:06;;;;;;;7.53;5.55;;;30.60;59.30;;;;;;5073852;28;20082;-74
2021/07/27 07:27:32;;;;;;;7.50;5.72;;;30.70;59.20;;;;;;5073314;28;20099;-70
2021/07/27 07:29:57;;;;;;;6.85;5.30;;;30.90;59.10;;;;;;5073695;28;20459;-75
2021/07/27 07:32:23;;;;;;;7.32;5.82;;;31.00;59.00;;;;;;5061285;28;20031;-76
2021/07/27 07:34:49;;;;;;;8.00;5.75;;;31.10;58.80;;;;;;5071730;28;20099;-75
2021/07/27 07:37:15;;;;;;;7.20;5.65;;;31.30;58.70;;;;;;5073766;28;20025;-74
2021/07/27 07:39:41;;;;;;;6.97;5.82;;;31.30;58.50;;;;;;5054894;28;20028;-71
2021/07/27 07:42:07;;;;;;;8.13;5.93;;;31.40;58.30;;;;;;5072263;28;20032;-72
2021/07/27 07:44:34;;;;;;;7.05;5.32;;;31.60;58.20;;;;;;5073048;28;20035;-74
2021/07/27 07:47:00;;;;;;;6.28;5.15;;;31.70;57.90;;;;;;5054565;28;20028;-74
2021/07/27 07:49:26;;;;;;;8.45;5.57;;;31.70;57.70;;;;;;5073201;28;20028;-75
2021/07/27 07:51:54;;;;;;;6.45;5.20;;;31.90;57.60;;;;;;5053132;28;20867;-71
2021/07/27 07:54:20;;;;;;;7.32;5.45;;;31.90;57.40;;;;;;5090635;28;20039;-70
2021/07/27 07:56:46;;;;;;;7.30;5.80;;;32.00;57.30;;;;;;5072868;28;20100;-70
2021/07/27 07:59:13;;;;;;;7.80;5.45;;;32.10;57.20;;;;;;5057065;28;20024;-71
2021/07/27 08:01:44;;;;;;;7.45;6.18;;;32.20;57.10;;;;;;5060622;28;20037;-71
2021/07/27 08:04:10;;;;;;;7.60;5.55;;;32.20;57.00;;;;;;5063649;28;20041;-72
2021/07/27 08:06:36;;;;;;;7.80;5.95;;;32.20;56.80;;;;;;5061511;28;20040;-71
2021/07/27 08:09:02;;;;;;;7.80;5.90;;;32.30;56.90;;;;;;5052553;28;20029;-73
2021/07/27 08:11:28;;;;;;;7.97;6.10;;;32.40;57.50;;;;;;5040993;28;20083;-70
2021/07/27 08:13:56;;;;;;;8.27;6.22;;;32.50;56.70;;;;;;5071923;28;20036;-71
2021/07/27 08:16:22;;;;;;;8.48;6.50;;;32.60;56.50;;;;;;5056884;28;20481;-70
2021/07/27 08:18:47;;;;;;;9.25;6.75;;;32.60;56.40;;;;;;5071945;28;20162;-71
2021/07/27 08:21:13;;;;;;;9.68;6.50;;;32.80;56.40;;;;;;5057885;28;20029;-71
2021/07/27 08:23:48;;;;;;;8.13;6.18;;;32.80;56.20;;;;;;5059782;28;20025;-71
2021/07/27 08:26:14;;;;;;;9.68;6.10;;;32.90;56.10;;;;;;5052398;28;20029;-69
2021/07/27 08:28:42;;;;;;;8.93;6.35;;;33.00;56.60;;;;;;5065687;28;20461;-71
2021/07/27 08:31:08;;;;;;;9.43;5.95;;;33.10;55.90;;;;;;5062108;28;20292;-70
2021/07/27 08:33:34;;;;;;;7.90;5.20;;;33.20;55.70;;;;;;5068162;28;20033;-71
2021/07/27 08:35:59;;;;;;;7.25;5.60;;;33.40;55.50;;;;;;5071806;28;20025;-71
2021/07/27 08:38:25;;;;;;;7.05;5.30;;;33.50;55.30;;;;;;5060511;28;20029;-72
2021/07/27 08:40:51;;;;;;;7.32;5.20;;;33.70;55.10;;;;;;5063696;28;20021;-72
2021/07/27 08:43:17;;;;;;;7.03;5.18;;;33.70;54.80;;;;;;5063485;28;20032;-72
2021/07/27 08:45:44;;;;;;;6.88;4.80;;;33.90;54.60;;;;;;5042887;28;20044;-71
2021/07/27 08:48:10;;;;;;;8.02;4.78;;;34.00;54.50;;;;;;5071760;28;20511;-72
2021/07/27 08:50:35;;;;;;;7.57;5.00;;;34.20;54.30;;;;;;5071836;28;20107;-71
2021/07/27 08:53:01;;;;;;;7.30;4.63;;;34.30;54.00;;;;;;5043193;28;20021;-71
2021/07/27 08:55:27;;;;;;;6.53;5.00;;;34.50;53.80;;;;;;5038768;28;20025;-72
2021/07/27 08:57:59;;;;;;;6.82;5.00;;;34.60;53.40;;;;;;5044109;28;20079;-73
2021/07/27 09:00:27;;;;;;;6.38;4.90;;;34.80;53.20;;;;;;5049930;28;20411;-72
2021/07/27 09:02:53;;;;;;;8.10;4.97;;;34.90;53.10;;;;;;5085267;28;20040;-71
2021/07/27 09:05:20;;;;;;;5.88;4.18;;;35.00;52.80;;;;;;5059434;28;20033;-70
2021/07/27 09:07:45;;;;;;;4.60;2.80;;;35.10;51.20;;;;;;5059895;28;20023;-69
2021/07/27 09:10:19;;;;;;;4.97;2.80;;;35.10;49.50;;;;;;5053121;28;20376;-69
2021/07/27 09:12:58;;;;;;;4.40;2.67;;;35.20;48.60;;;;;;5051587;28;20380;-69
2021/07/27 09:15:26;;;;;;;5.88;3.20;;;35.20;47.00;;;;;;5062860;28;20115;-71
2021/07/27 09:18:05;;;;;;;6.25;3.63;;;35.20;47.70;;;;;;5061549;28;20108;-71
2021/07/27 09:20:50;;;;;;;6.88;4.30;;;35.30;48.60;;;;;;5052931;28;20063;-72
2021/07/27 09:23:23;;;;;;;6.43;3.97;;;35.40;48.90;;;;;;5060306;28;20028;-72
2021/07/27 09:25:51;;;;;;;5.63;3.90;;;35.60;49.10;;;;;;5069698;28;20115;-72
2021/07/27 09:28:18;;;;;;;5.38;3.88;;;35.80;49.20;;;;;;5069716;28;20119;-76
2021/07/27 09:30:45;;;;;;;5.88;4.05;;;36.00;49.20;;;;;;5070614;28;20016;-70
2021/07/27 09:33:15;;;;;;;5.60;3.60;;;36.20;49.10;;;;;;5070547;28;20482;-68
2021/07/27 09:35:42;;;;;;;6.05;4.25;;;36.40;49.00;;;;;;5071046;28;20020;-75
2021/07/27 09:38:13;;;;;;;6.60;4.20;;;36.50;48.80;;;;;;5071413;28;20629;-73
2021/07/27 09:40:52;;;;;;;6.70;4.18;;;36.70;48.70;;;;;;5071009;28;20028;-73
2021/07/27 09:43:20;;;;;;;5.40;3.80;;;36.90;48.30;;;;;;5071087;28;20029;-72
2021/07/27 09:45:48;;;;;;;6.38;4.05;;;37.10;48.40;;;;;;5071007;28;20048;-73
2021/07/27 09:48:18;;;;;;;6.25;3.80;;;37.50;48.40;;;;;;5071118;28;20078;-72
2021/07/27 09:50:48;;;;;;;5.90;4.07;;;37.70;48.10;;;;;;5053053;28;20081;-71
2021/07/27 09:53:15;;;;;;;6.63;4.07;;;37.90;47.70;;;;;;5051874;28;20380;-72
2021/07/27 09:55:41;;;;;;;7.95;4.25;;;38.10;47.40;;;;;;5070978;28;20028;-71
2021/07/27 09:58:07;;;;;;;6.40;3.78;;;38.30;47.20;;;;;;5073253;28;20017;-72
2021/07/27 10:00:37;;;;;;;6.00;3.40;;;38.40;46.70;;;;;;5074975;28;20114;-72
2021/07/27 10:03:05;;;;;;;7.15;3.35;;;38.60;46.20;;;;;;5090417;28;20401;-71
2021/07/27 10:05:33;;;;;;;5.55;3.50;;;38.70;45.70;;;;;;5075692;28;20025;-71
2021/07/27 10:07:59;;;;;;;7.32;3.72;;;38.70;45.50;;;;;;5075475;28;20035;-72
2021/07/27 10:10:43;;;;;;;5.10;3.47;;;38.90;45.30;;;;;;5075760;28;20025;-71
2021/07/27 10:13:12;;;;;;;4.88;2.97;;;39.10;42.90;;;;;;5076447;28;20032;-71
2021/07/27 10:15:45;;;;;;;4.93;3.05;;;39.30;44.50;;;;;;5077325;28;20021;-72
2021/07/27 10:18:12;;;;;;;4.60;2.75;;;39.40;44.00;;;;;;5076156;28;20032;-72
2021/07/27 10:20:39;;;;;;;5.03;3.05;;;39.60;43.80;;;;;;5075503;28;20025;-72
2021/07/27 10:23:19;;;;;;;6.47;3.00;;;39.80;42.90;;;;;;5075117;28;20066;-73
2021/07/27 10:26:03;;;;;;;4.00;2.50;;;40.00;42.10;;;;;;5075321;28;20020;-72
2021/07/27 10:28:28;;;;;;;4.00;2.30;;;40.10;41.20;;;;;;5057271;28;20643;-73
2021/07/27 10:31:05;;;;;;;4.45;2.55;;;40.40;41.70;;;;;;5075102;28;20028;-73
2021/07/27 10:33:31;;;;;;;4.35;2.20;;;40.50;40.10;;;;;;5074978;28;20387;-72
2021/07/27 10:35:57;;;;;;;3.75;2.10;;;40.70;40.70;;;;;;5074523;28;20025;-73
2021/07/27 10:38:35;;;;;;;6.00;2.40;;;40.80;40.20;;;;;;5074770;28;20479;-73
2021/07/27 10:41:00;;;;;;;3.78;2.00;;;40.60;40.00;;;;;;5074529;28;20024;-72
2021/07/27 10:43:26;;;;;;;4.60;2.03;;;40.30;39.20;;;;;;5074604;28;20029;-72
2021/07/27 10:46:01;;;;;;;4.50;2.28;;;40.20;39.30;;;;;;5074681;28;20506;-72
2021/07/27 10:48:37;;;;;;;4.40;1.90;;;40.40;39.40;;;;;;5056574;28;20020;-71
2021/07/27 10:51:03;;;;;;;4.07;1.90;;;40.60;38.20;;;;;;5074905;28;20025;-72
2021/07/27 10:53:33;;;;;;;3.85;2.03;;;40.80;38.90;;;;;;5074139;28;20100;-72
2021/07/27 10:56:10;;;;;;;3.00;1.75;;;41.20;38.70;;;;;;5074083;28;20036;-73
2021/07/27 10:58:36;;;;;;;3.40;1.83;;;41.50;38.10;;;;;;5054523;28;20037;-73
2021/07/27 11:01:09;;;;;;;3.30;1.80;;;42.00;38.30;;;;;;5054289;28;20078;-72
2021/07/27 11:03:36;;;;;;;3.38;1.73;;;42.50;37.60;;;;;;5054129;28;20128;-73
2021/07/27 11:06:03;;;;;;;3.33;1.80;;;43.00;37.60;;;;;;5054177;28;20052;-73
2021/07/27 11:08:29;;;;;;;3.55;1.70;;;43.40;37.20;;;;;;5053762;28;20074;-73
2021/07/27 11:11:09;;;;;;;3.20;1.60;;;43.80;36.70;;;;;;5036246;28;20480;-72
2021/07/27 11:13:36;;;;;;;4.13;1.90;;;44.20;35.00;;;;;;5059874;28;20029;-72
2021/07/27 11:16:03;;;;;;;3.50;1.90;;;44.70;36.50;;;;;;5074324;28;20043;-73
2021/07/27 11:18:29;;;;;;;3.65;1.70;;;45.10;36.00;;;;;;5073818;28;20081;-73
2021/07/27 11:20:56;;;;;;;3.65;1.60;;;45.50;35.60;;;;;;5073579;28;20423;-74
2021/07/27 11:23:22;;;;;;;2.60;1.50;;;45.70;35.10;;;;;;5073842;28;20031;-72
2021/07/27 11:25:52;;;;;;;3.50;1.88;;;45.90;34.70;;;;;;5073739;28;20190;-72
2021/07/27 11:28:18;;;;;;;3.38;1.70;;;46.20;34.50;;;;;;5074031;28;20028;-72
2021/07/27 11:30:44;;;;;;;3.25;1.63;;;46.40;34.30;;;;;;5056372;28;20063;-72
2021/07/27 11:33:15;;;;;;;3.60;1.70;;;46.80;34.00;;;;;;5073530;28;20047;-73
2021/07/27 11:35:46;;;;;;;5.57;1.70;;;47.00;33.70;;;;;;5073647;28;20078;-73
2021/07/27 11:38:33;;;;;;;4.00;1.70;;;47.30;33.40;;;;;;5073347;28;20096;-73
2021/07/27 11:41:03;;;;;;;3.10;1.60;;;47.50;31.60;;;;;;5073412;28;20024;-73
2021/07/27 11:43:33;;;;;;;3.22;1.55;;;47.70;32.80;;;;;;5073408;28;20038;-73
2021/07/27 11:46:19;;;;;;;4.20;2.10;;;48.00;32.80;;;;;;5072960;28;20547;-73
2021/07/27 11:48:54;;;;;;;3.38;1.70;;;48.30;31.40;;;;;;5073065;28;20017;-72
2021/07/27 11:51:33;;;;;;;3.92;1.40;;;48.60;32.20;;;;;;5073406;28;20090;-72
2021/07/27 11:54:00;;;;;;;6.93;1.77;;;48.90;30.80;;;;;;5072944;28;20029;-72
2021/07/27 11:56:25;;;;;;;2.70;1.63;;;49.00;31.90;;;;;;5073260;28;20039;-72
2021/07/27 11:59:02;;;;;;;4.03;1.70;;;49.20;31.70;;;;;;5073366;28;20020;-72
2021/07/27 12:01:43;;;;;;;3.13;1.70;;;49.50;30.90;;;;;;5072921;28;20024;-73
2021/07/27 12:04:10;;;;;;;2.97;1.60;;;49.60;30.90;;;;;;5072720;28;20403;-73
2021/07/27 12:06:45;;;;;;;3.75;1.75;;;49.90;31.20;;;;;;5055040;28;20020;-74
2021/07/27 12:09:11;;;;;;;3.75;1.80;;;50.10;30.20;;;;;;5072808;28;20081;-73
2021/07/27 12:11:36;;;;;;;4.47;1.80;;;50.30;30.60;;;;;;5072689;28;20107;-72
2021/07/27 12:14:02;;;;;;;2.55;1.52;;;50.30;30.30;;;;;;5072737;28;20032;-73
2021/07/27 12:16:31;;;;;;;4.40;1.80;;;50.40;30.20;;;;;;5073106;28;20467;-74
2021/07/27 12:18:56;;;;;;;4.82;1.75;;;50.40;30.00;;;;;;5072616;28;20107;-74
2021/07/27 12:21:22;;;;;;;3.17;1.50;;;50.60;30.00;;;;;;5071695;28;20414;-73
2021/07/27 12:23:48;;;;;;;2.85;1.70;;;50.60;29.90;;;;;;5072550;28;20605;-73
2021/07/27 12:26:14;;;;;;;3.20;1.60;;;50.80;29.80;;;;;;5088234;28;20021;-74
2021/07/27 12:28:39;;;;;;;3.78;1.90;;;51.00;29.80;;;;;;5072671;28;20460;-73
2021/07/27 12:31:05;;;;;;;4.15;1.80;;;51.10;29.70;;;;;;5072599;28;20105;-73
2021/07/27 12:33:31;;;;;;;3.25;1.63;;;51.30;29.60;;;;;;5072577;28;20021;-73
2021/07/27 12:36:04;;;;;;;3.00;1.60;;;51.50;29.40;;;;;;5072568;28;20491;-73
2021/07/27 12:38:29;;;;;;;2.95;1.65;;;51.70;29.30;;;;;;5072224;28;20032;-73
2021/07/27 12:40:55;;;;;;;2.60;1.60;;;51.70;29.10;;;;;;5072349;28;20025;-73
2021/07/27 12:43:22;;;;;;;3.15;1.77;;;51.70;29.10;;;;;;5054231;28;20374;-74
2021/07/27 12:45:48;;;;;;;4.47;1.80;;;51.80;29.20;;;;;;5072430;28;20494;-73
2021/07/27 12:48:15;;;;;;;3.40;1.88;;;51.90;28.90;;;;;;5087592;28;20115;-73
2021/07/27 12:50:40;;;;;;;3.28;1.80;;;51.90;28.90;;;;;;5072322;28;20382;-74
2021/07/27 12:53:06;;;;;;;3.85;1.90;;;52.10;28.90;;;;;;5072248;28;20021;-74
2021/07/27 12:55:33;;;;;;;3.28;1.75;;;52.20;28.70;;;;;;5071954;28;20060;-73
2021/07/27 12:58:00;;;;;;;3.45;1.80;;;52.30;28.60;;;;;;5071819;28;20437;-73
2021/07/27 13:00:26;;;;;;;3.75;1.60;;;52.60;28.60;;;;;;5072020;28;20028;-72
2021/07/27 13:02:52;;;;;;;3.28;1.80;;;52.70;28.60;;;;;;5071839;28;20569;-74
2021/07/27 13:05:17;;;;;;;3.10;1.70;;;52.80;28.40;;;;;;5072248;28;20024;-74
2021/07/27 13:07:43;;;;;;;3.28;1.67;;;52.80;28.30;;;;;;5072587;28;20073;-73
2021/07/27 13:10:09;;;;;;;3.90;1.60;;;52.90;28.20;;;;;;5072286;28;20113;-73
2021/07/27 13:12:35;;;;;;;2.80;1.67;;;53.00;28.30;;;;;;5072071;28;20809;-74